createdAt,value
2022-11-17T00:00:02.469Z,6.45
2022-11-17T00:05:04.081Z,5.88
2022-11-17T00:10:06.024Z,5.07
2022-11-17T00:15:07.568Z,6.05
2022-11-17T00:20:30.621Z,6.50
2022-11-17T00:25:32.066Z,5.95
2022-11-17T00:30:51.891Z,6.72
2022-11-17T00:35:53.575Z,6.70
2022-11-17T00:40:55.027Z,6.57
2022-11-17T00:45:56.494Z,6.35
2022-11-17T00:50:57.942Z,6.00
2022-11-17T00:55:59.405Z,5.97
2022-11-17T01:01:01.106Z,5.95
2022-11-17T01:06:07.064Z,6.15
2022-11-17T01:11:13.315Z,5.15
2022-11-17T01:16:18.555Z,5.45
2022-11-17T01:21:21.708Z,5.40
2022-11-17T01:26:24.940Z,6.35
2022-11-17T01:31:28.092Z,5.28
2022-11-17T01:41:31.504Z,6.80
2022-11-17T01:46:37.760Z,6.68
2022-11-17T01:51:42.212Z,5.13
2022-11-17T01:56:44.379Z,4.63
2022-11-17T02:01:55.718Z,6.15
2022-11-17T02:07:01.209Z,5.43
2022-11-17T02:12:02.714Z,5.40
2022-11-17T02:17:11.531Z,5.22
2022-11-17T02:22:49.475Z,5.55
2022-11-17T02:28:10.927Z,5.80
2022-11-17T02:33:13.463Z,5.63
2022-11-17T02:38:23.819Z,6.18
2022-11-17T02:43:46.271Z,6.55
2022-11-17T02:53:56.518Z,7.07
2022-11-17T02:58:59.654Z,5.80
2022-11-17T03:09:42.221Z,6.32
2022-11-17T03:14:58.514Z,5.65
2022-11-17T03:20:12.560Z,6.55
2022-11-17T03:25:15.001Z,6.57
2022-11-17T03:30:16.508Z,7.57
2022-11-17T03:35:20.036Z,7.60
2022-11-17T03:40:23.291Z,7.88
2022-11-17T03:45:35.296Z,7.80
2022-11-17T03:50:37.957Z,7.20
2022-11-17T03:55:50.323Z,6.97
2022-11-17T04:00:52.130Z,9.30
2022-11-17T04:05:53.585Z,7.55
2022-11-17T04:11:14.447Z,7.55
2022-11-17T04:16:15.888Z,7.53
2022-11-17T04:21:17.354Z,6.93
2022-11-17T04:26:37.082Z,6.53
2022-11-17T04:31:38.530Z,7.43
2022-11-17T04:36:43.789Z,7.30
2022-11-17T04:41:54.241Z,7.50
2022-11-17T04:46:55.860Z,7.90
2022-11-17T04:51:57.311Z,7.55
2022-11-17T04:56:58.765Z,7.55
2022-11-17T05:02:05.658Z,7.90
2022-11-17T05:07:08.149Z,7.10
2022-11-17T05:12:28.083Z,7.90
2022-11-17T05:17:29.798Z,6.95
2022-11-17T05:22:49.855Z,6.65
2022-11-17T05:27:51.316Z,6.88
2022-11-17T05:32:52.779Z,7.80
2022-11-17T05:37:54.240Z,7.35
2022-11-17T05:42:57.215Z,7.68
2022-11-17T05:53:00.115Z,6.63
2022-11-17T05:58:15.751Z,6.22
2022-11-17T06:03:22.517Z,7.90
2022-11-17T06:08:23.961Z,7.75
2022-11-17T06:13:28.897Z,7.80
2022-11-17T06:18:38.459Z,7.35
2022-11-17T06:23:39.914Z,6.95
2022-11-17T06:28:41.735Z,8.13
2022-11-17T06:33:43.286Z,6.60
2022-11-17T06:38:44.745Z,6.78
2022-11-17T06:43:46.200Z,7.00
2022-11-17T06:48:48.031Z,7.50
2022-11-17T06:53:49.494Z,7.63
2022-11-17T06:58:50.952Z,8.52
2022-11-17T07:03:52.477Z,7.35
2022-11-17T07:08:53.940Z,7.50
2022-11-17T07:13:55.390Z,8.13
2022-11-17T07:18:59.094Z,7.90
2022-11-17T07:24:00.590Z,8.85
2022-11-17T07:29:02.049Z,8.45
2022-11-17T07:34:03.514Z,7.82
2022-11-17T07:39:05.616Z,9.40
2022-11-17T07:44:07.063Z,8.60
2022-11-17T07:49:08.526Z,7.88
2022-11-17T07:54:10.007Z,8.20
2022-11-17T07:59:11.462Z,8.35
2022-11-17T08:04:12.933Z,8.85
2022-11-17T08:09:15.712Z,10.43
2022-11-17T08:14:17.221Z,9.60
2022-11-17T08:19:18.684Z,10.35
2022-11-17T08:24:20.129Z,8.90
2022-11-17T08:29:21.626Z,9.73
2022-11-17T08:34:23.092Z,9.40
2022-11-17T08:39:24.565Z,9.32
2022-11-17T08:44:26.172Z,9.98
2022-11-17T08:49:27.744Z,9.50
2022-11-17T08:54:29.191Z,9.80
2022-11-17T08:59:30.635Z,9.93
2022-11-17T09:04:32.083Z,9.85
2022-11-17T09:09:33.573Z,9.85
2022-11-17T09:14:35.108Z,9.98
2022-11-17T09:19:36.627Z,10.13
2022-11-17T09:24:38.088Z,9.55
2022-11-17T09:29:39.948Z,9.35
2022-11-17T09:34:41.552Z,9.35
2022-11-17T09:39:43.938Z,8.93
2022-11-17T09:45:25.635Z,9.40
2022-11-17T09:50:35.316Z,7.95
2022-11-17T10:00:48.744Z,8.48
2022-11-17T10:05:50.361Z,8.05
2022-11-17T10:10:51.854Z,8.73
2022-11-17T10:15:58.511Z,7.65
2022-11-17T10:20:59.991Z,7.68
2022-11-17T10:26:01.462Z,7.28
2022-11-17T10:31:03.713Z,8.18
2022-11-17T10:36:14.247Z,8.07
2022-11-17T10:41:38.945Z,7.60
2022-11-17T10:47:07.977Z,7.95
2022-11-17T10:52:09.292Z,7.95
2022-11-17T10:57:22.588Z,6.80
2022-11-17T11:02:31.405Z,9.38
2022-11-17T11:07:32.894Z,9.07
2022-11-17T11:12:35.837Z,8.70
2022-11-17T11:17:37.296Z,7.95
2022-11-17T11:22:43.208Z,9.48
2022-11-17T11:27:52.327Z,8.90
2022-11-17T11:33:06.479Z,9.88
2022-11-17T11:38:22.176Z,7.38
2022-11-17T11:43:35.856Z,8.77
2022-11-17T11:48:37.334Z,8.75
2022-11-17T11:53:43.350Z,7.93
2022-11-17T11:58:47.974Z,7.70
2022-11-17T12:04:04.233Z,7.65
2022-11-17T12:09:30.261Z,9.00
2022-11-17T12:14:32.965Z,7.30
2022-11-17T12:19:55.163Z,8.02
2022-11-17T12:25:03.995Z,8.63
2022-11-17T12:30:06.435Z,7.50
2022-11-17T12:35:28.143Z,8.70
2022-11-17T12:40:38.674Z,8.25
2022-11-17T12:45:58.213Z,7.60
2022-11-17T12:51:26.782Z,8.70
2022-11-17T12:56:42.382Z,10.18
2022-11-17T13:01:56.250Z,8.63
2022-11-17T13:07:01.414Z,9.23
2022-11-17T13:12:07.051Z,8.57
2022-11-17T13:17:11.494Z,7.82
2022-11-17T13:22:13.740Z,8.27
2022-11-17T13:27:31.268Z,9.25
2022-11-17T13:32:32.741Z,9.13
2022-11-17T13:37:34.195Z,7.65
2022-11-17T13:42:35.670Z,8.73
2022-11-17T13:47:36.962Z,8.27
2022-11-17T13:52:45.331Z,7.90
2022-11-17T13:57:56.659Z,8.18
2022-11-17T14:02:59.603Z,8.10
2022-11-17T14:08:33.687Z,7.18
2022-11-17T14:13:44.522Z,7.50
2022-11-17T14:18:56.039Z,7.50
2022-11-17T14:24:05.345Z,8.10
2022-11-17T14:29:10.220Z,6.97
2022-11-17T14:34:11.738Z,6.60
2022-11-17T14:39:15.076Z,8.27
2022-11-17T14:44:16.704Z,7.40
2022-11-17T14:49:18.350Z,8.10
2022-11-17T14:54:19.903Z,8.43
2022-11-17T14:59:21.348Z,7.40
2022-11-17T15:09:44.706Z,7.13
2022-11-17T15:14:49.324Z,7.57
2022-11-17T15:19:50.776Z,6.30
2022-11-17T15:24:52.227Z,7.20
2022-11-17T15:29:53.921Z,7.15
2022-11-17T15:34:55.383Z,6.90
2022-11-17T15:39:56.851Z,6.10
2022-11-17T15:44:58.300Z,7.07
2022-11-17T15:49:59.745Z,5.47
2022-11-17T15:55:01.192Z,5.95
2022-11-17T16:00:04.226Z,7.35
2022-11-17T16:05:06.266Z,5.57
2022-11-17T16:10:07.855Z,7.00
2022-11-17T16:15:09.435Z,5.68
2022-11-17T16:20:11.317Z,6.32
2022-11-17T16:25:12.877Z,5.50
2022-11-17T16:30:14.883Z,5.90
2022-11-17T16:35:16.371Z,4.82
2022-11-17T16:40:18.436Z,6.43
2022-11-17T16:45:20.001Z,6.50
2022-11-17T16:50:21.466Z,5.30
2022-11-17T16:55:22.952Z,5.90
2022-11-17T17:00:24.417Z,5.53
2022-11-17T17:05:25.931Z,5.30
2022-11-17T17:10:27.391Z,6.40
2022-11-17T17:15:28.838Z,6.28
2022-11-17T17:20:30.290Z,6.22
2022-11-17T17:25:32.555Z,5.55
2022-11-17T17:30:34.002Z,6.50
2022-11-17T17:35:35.445Z,7.00
2022-11-17T17:40:36.891Z,6.10
2022-11-17T17:45:38.483Z,5.80
2022-11-17T17:50:40.166Z,5.97
2022-11-17T17:55:41.649Z,6.47
2022-11-17T18:00:43.518Z,5.38
2022-11-17T18:05:46.219Z,5.57
2022-11-17T18:10:47.672Z,5.15
2022-11-17T18:15:49.167Z,4.82
2022-11-17T18:21:06.557Z,5.78
2022-11-17T18:26:21.849Z,6.18
2022-11-17T18:31:24.189Z,4.85
2022-11-17T18:36:26.200Z,4.65
2022-11-17T18:41:30.500Z,5.00
2022-11-17T18:46:32.190Z,4.60
2022-11-17T18:51:34.406Z,5.68
2022-11-17T18:56:36.530Z,5.25
2022-11-17T19:01:39.021Z,6.72
2022-11-17T19:06:40.576Z,5.45
2022-11-17T19:11:42.097Z,4.78
2022-11-17T19:16:45.093Z,5.50
2022-11-17T19:26:48.167Z,5.38
2022-11-17T19:31:51.101Z,4.55
2022-11-17T19:36:52.882Z,5.55
2022-11-17T19:41:54.368Z,6.38
2022-11-17T19:46:55.881Z,5.47
2022-11-17T19:51:57.372Z,6.13
2022-11-17T19:56:58.890Z,5.65
2022-11-17T20:02:00.355Z,6.53
2022-11-17T20:07:01.881Z,6.00
2022-11-17T20:12:03.455Z,5.70
2022-11-17T20:17:04.902Z,6.53
2022-11-17T20:22:06.439Z,6.70
2022-11-17T20:27:07.891Z,7.55
2022-11-17T20:32:09.360Z,8.20
2022-11-17T20:37:11.866Z,7.50
2022-11-17T20:42:17.092Z,7.85
2022-11-17T20:47:18.537Z,7.50
2022-11-17T20:52:20.191Z,7.68
2022-11-17T20:57:21.654Z,8.27
2022-11-17T21:02:23.114Z,8.25
2022-11-17T21:07:24.601Z,8.48
2022-11-17T21:12:26.119Z,8.60
2022-11-17T21:17:46.109Z,8.45
2022-11-17T21:22:47.618Z,7.18
2022-11-17T21:27:49.076Z,7.80
2022-11-17T21:32:50.599Z,7.88
2022-11-17T21:37:52.077Z,6.65
2022-11-17T21:42:53.526Z,7.20
2022-11-17T21:47:59.212Z,6.63
2022-11-17T21:53:01.392Z,5.95
2022-11-17T21:58:02.867Z,7.10
2022-11-17T22:03:04.354Z,5.93
2022-11-17T22:08:05.902Z,7.07
2022-11-17T22:13:08.272Z,6.20
2022-11-17T22:18:09.733Z,6.70
2022-11-17T22:23:11.203Z,6.30
2022-11-17T22:28:12.695Z,5.53
2022-11-17T22:33:14.182Z,5.93
2022-11-17T22:38:15.895Z,7.00
2022-11-17T22:43:17.339Z,6.05
2022-11-17T22:48:18.804Z,7.13
2022-11-17T22:53:20.354Z,6.32
2022-11-17T22:58:21.839Z,7.50
2022-11-17T23:03:23.541Z,6.78
2022-11-17T23:08:25.062Z,6.78
2022-11-17T23:13:26.517Z,6.65
2022-11-17T23:18:28.001Z,7.32
2022-11-17T23:23:33.071Z,6.15
2022-11-17T23:28:34.547Z,7.55
2022-11-17T23:33:37.488Z,7.32
2022-11-17T23:38:38.959Z,8.15
2022-11-17T23:43:40.476Z,7.50
2022-11-17T23:48:42.024Z,7.53
2022-11-17T23:53:43.530Z,8.20
2022-11-17T23:58:44.997Z,7.80
